createdAt,value
2019-03-30T00:02:07.591Z,16.55
2019-03-30T00:04:38.243Z,17.70
2019-03-30T00:09:38.727Z,16.10
2019-03-30T00:12:10.507Z,16.50
2019-03-30T00:14:41.264Z,17.25
2019-03-30T00:17:11.910Z,17.70
2019-03-30T00:19:42.665Z,15.85
2019-03-30T00:24:43.152Z,17.77
2019-03-30T00:27:14.007Z,17.05
2019-03-30T00:29:44.638Z,17.40
2019-03-30T00:34:45.241Z,18.17
2019-03-30T00:37:15.996Z,18.25
2019-03-30T00:39:47.146Z,17.30
2019-03-30T00:42:17.799Z,18.12
2019-03-30T00:44:48.564Z,16.52
2019-03-30T00:47:19.422Z,15.25
2019-03-30T00:49:50.371Z,15.20
2019-03-30T00:52:21.135Z,16.20
2019-03-30T00:54:51.996Z,15.08
2019-03-30T00:57:22.726Z,14.80
2019-03-30T00:59:53.376Z,15.15
2019-03-30T01:02:24.030Z,15.95
2019-03-30T01:07:24.430Z,14.23
2019-03-30T01:09:55.184Z,15.43
2019-03-30T01:12:27.145Z,15.63
2019-03-30T01:14:57.918Z,15.43
2019-03-30T01:17:28.761Z,14.50
2019-03-30T01:20:03.015Z,13.90
2019-03-30T01:22:31.712Z,15.30
2019-03-30T01:25:02.448Z,15.63
2019-03-30T01:27:33.221Z,14.95
2019-03-30T01:30:03.976Z,14.38
2019-03-30T01:32:35.118Z,14.43
2019-03-30T01:35:07.495Z,14.65
2019-03-30T01:37:37.959Z,15.90
2019-03-30T01:40:08.506Z,14.38
2019-03-30T01:42:39.362Z,14.73
2019-03-30T01:45:10.337Z,15.15
2019-03-30T01:47:41.093Z,15.88
2019-03-30T01:50:17.734Z,16.67
2019-03-30T01:52:43.911Z,14.50
2019-03-30T01:55:14.685Z,14.80
2019-03-30T01:57:45.443Z,16.90
2019-03-30T02:00:16.992Z,16.77
2019-03-30T02:02:47.764Z,15.53
2019-03-30T02:05:18.621Z,15.05
2019-03-30T02:07:49.477Z,16.57
2019-03-30T02:10:37.949Z,15.93
2019-03-30T02:13:09.171Z,15.15
2019-03-30T02:15:39.839Z,16.70
2019-03-30T02:18:10.699Z,15.58
2019-03-30T02:20:43.802Z,15.80
2019-03-30T02:23:14.229Z,15.80
2019-03-30T02:25:45.110Z,15.50
2019-03-30T02:28:15.843Z,17.37
2019-03-30T02:30:46.514Z,17.10
2019-03-30T02:33:17.364Z,15.98
2019-03-30T02:35:48.121Z,16.17
2019-03-30T02:38:18.872Z,16.07
2019-03-30T02:40:49.732Z,15.40
2019-03-30T02:43:20.467Z,16.27
2019-03-30T02:45:51.121Z,16.32
2019-03-30T02:50:51.572Z,16.02
2019-03-30T02:53:22.358Z,15.68
2019-03-30T02:55:53.027Z,17.32
2019-03-30T02:58:23.864Z,16.45
2019-03-30T03:00:54.535Z,16.12
2019-03-30T03:03:25.269Z,16.73
2019-03-30T03:05:55.940Z,16.67
2019-03-30T03:08:26.795Z,16.52
2019-03-30T03:10:57.548Z,16.50
2019-03-30T03:13:29.318Z,17.05
2019-03-30T03:15:59.977Z,16.52
2019-03-30T03:21:07.903Z,16.83
2019-03-30T03:23:32.547Z,16.70
2019-03-30T03:26:03.614Z,18.37
2019-03-30T03:28:34.154Z,20.85
2019-03-30T03:31:04.905Z,21.45
2019-03-30T03:33:36.300Z,23.12
2019-03-30T03:36:07.132Z,22.60
2019-03-30T03:38:37.771Z,22.48
2019-03-30T03:43:38.164Z,22.32
2019-03-30T03:46:08.800Z,20.25
2019-03-30T03:51:24.815Z,17.63
2019-03-30T03:53:41.269Z,18.42
2019-03-30T03:58:41.650Z,16.30
2019-03-30T04:01:12.419Z,17.57
2019-03-30T04:03:42.968Z,15.68
2019-03-30T04:06:13.829Z,16.65
2019-03-30T04:08:44.459Z,17.42
2019-03-30T04:11:15.110Z,18.73
2019-03-30T04:13:46.803Z,17.62
2019-03-30T04:16:17.559Z,16.70
2019-03-30T04:18:48.669Z,16.95
2019-03-30T04:21:19.455Z,16.50
2019-03-30T04:23:54.074Z,17.15
2019-03-30T04:26:22.521Z,16.17
2019-03-30T04:28:53.372Z,17.57
2019-03-30T04:31:24.148Z,19.57
2019-03-30T04:33:54.778Z,19.95
2019-03-30T04:36:25.614Z,20.12
2019-03-30T04:38:56.385Z,20.25
2019-03-30T04:41:27.141Z,19.95
2019-03-30T04:43:57.794Z,18.35
2019-03-30T04:46:28.649Z,17.25
2019-03-30T04:48:59.403Z,16.67
2019-03-30T04:51:30.138Z,18.67
2019-03-30T04:54:01.012Z,18.02
2019-03-30T04:56:31.866Z,18.42
2019-03-30T04:59:02.632Z,17.57
2019-03-30T05:01:33.286Z,19.23
2019-03-30T05:04:04.109Z,16.80
2019-03-30T05:06:37.011Z,17.02
2019-03-30T05:09:07.885Z,18.37
2019-03-30T05:11:38.523Z,20.55
2019-03-30T05:14:10.416Z,18.77
2019-03-30T05:16:41.170Z,19.85
2019-03-30T05:19:11.805Z,19.67
2019-03-30T05:21:42.558Z,20.35
2019-03-30T05:24:13.430Z,20.02
2019-03-30T05:26:44.192Z,21.10
2019-03-30T05:29:14.825Z,20.48
2019-03-30T05:31:45.574Z,22.40
2019-03-30T05:34:16.343Z,23.32
2019-03-30T05:36:46.981Z,21.80
2019-03-30T05:41:47.490Z,21.37
2019-03-30T05:44:18.132Z,22.07
2019-03-30T05:49:18.499Z,21.67
2019-03-30T05:51:49.269Z,22.30
2019-03-30T05:54:20.023Z,22.07
2019-03-30T05:56:50.879Z,22.50
2019-03-30T05:59:21.634Z,21.75
2019-03-30T06:01:52.273Z,22.37
2019-03-30T06:04:22.847Z,21.70
2019-03-30T06:06:53.687Z,22.32
2019-03-30T06:09:24.456Z,22.15
2019-03-30T06:11:55.200Z,23.98
2019-03-30T06:14:26.752Z,23.12
2019-03-30T06:16:57.507Z,23.62
2019-03-30T06:19:28.380Z,22.77
2019-03-30T06:21:59.233Z,23.42
2019-03-30T06:24:30.065Z,23.67
2019-03-30T06:27:00.723Z,24.80
2019-03-30T06:29:31.479Z,25.62
2019-03-30T06:32:02.351Z,30.30
2019-03-30T06:34:33.010Z,30.43
2019-03-30T06:39:36.820Z,29.27
2019-03-30T06:42:05.576Z,30.10
2019-03-30T06:44:36.223Z,30.37
2019-03-30T06:47:06.960Z,29.80
2019-03-30T06:49:37.817Z,32.13
2019-03-30T06:52:08.587Z,31.48
2019-03-30T06:54:39.237Z,31.45
2019-03-30T06:57:10.102Z,31.87
2019-03-30T06:59:40.848Z,32.33
2019-03-30T07:02:11.602Z,32.75
2019-03-30T07:04:43.380Z,32.08
2019-03-30T07:07:14.032Z,31.93
2019-03-30T07:09:45.297Z,31.80
2019-03-30T07:12:15.640Z,29.50
2019-03-30T07:14:46.684Z,31.73
2019-03-30T07:17:17.049Z,32.88
